createdAt,value
2019-02-23T00:02:10.725Z,53.68
2019-02-23T00:04:39.119Z,53.96
2019-02-23T00:07:07.469Z,53.56
2019-02-23T00:09:35.731Z,53.94
2019-02-23T00:12:04.737Z,53.54
2019-02-23T00:14:33.075Z,53.25
2019-02-23T00:17:01.349Z,53.55
2019-02-23T00:19:29.635Z,54.20
2019-02-23T00:21:57.895Z,54.72
2019-02-23T00:24:26.189Z,54.06
2019-02-23T00:26:54.455Z,55.33
2019-02-23T00:29:22.761Z,53.81
2019-02-23T00:31:51.066Z,54.29
2019-02-23T00:34:19.335Z,54.41
2019-02-23T00:36:47.614Z,54.30
2019-02-23T00:39:15.894Z,54.82
2019-02-23T00:41:44.273Z,53.46
2019-02-23T00:44:12.588Z,53.44
2019-02-23T00:46:40.862Z,54.07
2019-02-23T00:49:09.136Z,54.01
2019-02-23T00:51:37.415Z,54.57
2019-02-23T00:54:05.720Z,55.04
2019-02-23T00:56:34.022Z,54.00
2019-02-23T00:59:02.285Z,53.53
2019-02-23T01:01:30.572Z,53.35
2019-02-23T01:03:58.870Z,54.95
2019-02-23T01:06:27.169Z,55.18
2019-02-23T01:08:55.447Z,55.75
2019-02-23T01:11:23.736Z,55.60
2019-02-23T01:13:52.009Z,54.17
2019-02-23T01:16:20.351Z,53.52
2019-02-23T01:18:48.750Z,53.06
2019-02-23T01:21:17.016Z,53.85
2019-02-23T01:23:45.299Z,53.46
2019-02-23T01:26:13.598Z,53.12
2019-02-23T01:28:41.878Z,53.84
2019-02-23T01:31:10.168Z,53.94
2019-02-23T01:33:38.450Z,52.77
2019-02-23T01:36:06.757Z,53.95
2019-02-23T01:38:35.042Z,52.86
2019-02-23T01:41:03.329Z,53.76
2019-02-23T01:43:31.592Z,53.99
2019-02-23T01:45:59.935Z,52.99
2019-02-23T01:48:28.269Z,53.32
2019-02-23T01:50:56.551Z,53.69
2019-02-23T01:53:24.842Z,54.44
2019-02-23T01:55:53.134Z,53.87
2019-02-23T01:58:21.498Z,53.74
2019-02-23T02:00:49.763Z,53.22
2019-02-23T02:03:18.051Z,52.37
2019-02-23T02:05:46.316Z,51.45
2019-02-23T02:08:14.678Z,51.65
2019-02-23T02:10:43.058Z,52.17
2019-02-23T02:13:11.334Z,51.77
2019-02-23T02:15:39.888Z,52.12
2019-02-23T02:18:08.172Z,52.94
2019-02-23T02:20:36.492Z,51.88
2019-02-23T02:23:04.895Z,51.07
2019-02-23T02:25:33.186Z,52.03
2019-02-23T02:28:01.460Z,54.43
2019-02-23T02:30:29.741Z,53.61
2019-02-23T02:32:58.031Z,53.47
2019-02-23T02:35:26.295Z,52.99
2019-02-23T02:37:54.707Z,52.78
2019-02-23T02:40:23.086Z,52.27
2019-02-23T02:42:51.329Z,52.96
2019-02-23T02:45:19.616Z,52.72
2019-02-23T02:47:47.904Z,52.73
2019-02-23T02:50:24.367Z,52.61
2019-02-23T02:52:46.216Z,52.39
2019-02-23T02:55:14.518Z,52.16
2019-02-23T02:57:42.817Z,51.97
2019-02-23T03:00:12.642Z,52.21
2019-02-23T03:02:41.010Z,51.81
2019-02-23T03:05:09.842Z,52.45
2019-02-23T03:07:38.129Z,52.08
2019-02-23T03:10:06.569Z,53.49
2019-02-23T03:12:34.850Z,53.58
2019-02-23T03:15:03.144Z,52.78
2019-02-23T03:17:31.455Z,53.01
2019-02-23T03:19:59.746Z,53.15
2019-02-23T03:22:28.021Z,53.52
2019-02-23T03:24:56.281Z,53.79
2019-02-23T03:27:24.609Z,53.88
2019-02-23T03:29:52.883Z,52.58
2019-02-23T03:32:21.172Z,54.56
2019-02-23T03:34:49.443Z,53.14
2019-02-23T03:37:17.715Z,53.23
2019-02-23T03:39:45.994Z,53.41
2019-02-23T03:42:14.376Z,53.47
2019-02-23T03:44:42.666Z,53.57
2019-02-23T03:47:10.938Z,54.18
2019-02-23T03:49:39.240Z,55.28
2019-02-23T03:52:07.518Z,54.24
2019-02-23T03:54:35.809Z,53.89
2019-02-23T03:57:04.293Z,54.88
2019-02-23T03:59:32.626Z,54.29
2019-02-23T04:02:00.939Z,52.93
2019-02-23T04:04:29.206Z,55.28
2019-02-23T04:06:57.502Z,54.09
2019-02-23T04:09:25.804Z,54.24
2019-02-23T04:11:54.073Z,55.05
2019-02-23T04:14:22.375Z,53.99
2019-02-23T04:16:50.690Z,54.77
2019-02-23T04:19:18.966Z,54.51
2019-02-23T04:21:47.250Z,54.00
2019-02-23T04:24:15.543Z,53.38
2019-02-23T04:26:43.824Z,53.48
2019-02-23T04:29:12.117Z,52.28
2019-02-23T04:31:40.431Z,52.61
2019-02-23T04:34:08.699Z,53.26
2019-02-23T04:36:36.987Z,52.44
2019-02-23T04:39:06.146Z,53.77
2019-02-23T04:41:34.422Z,52.76
2019-02-23T04:44:02.695Z,51.68
2019-02-23T04:46:31.024Z,55.28
2019-02-23T04:48:59.303Z,54.62
2019-02-23T04:51:27.669Z,53.52
2019-02-23T04:53:55.967Z,52.16
2019-02-23T04:56:24.248Z,51.68
2019-02-23T04:58:52.591Z,52.65
2019-02-23T05:01:20.880Z,52.04
2019-02-23T05:03:49.228Z,51.45
2019-02-23T05:06:17.511Z,51.76
2019-02-23T05:08:45.781Z,51.29
2019-02-23T05:11:14.068Z,51.01
2019-02-23T05:13:42.337Z,49.91
2019-02-23T05:16:10.639Z,50.75
2019-02-23T05:18:38.903Z,50.70
2019-02-23T05:21:07.216Z,50.45
2019-02-23T05:23:35.496Z,51.11
2019-02-23T05:26:03.759Z,50.80
2019-02-23T05:28:32.055Z,52.38
2019-02-23T05:31:00.325Z,52.48
2019-02-23T05:33:28.622Z,52.01
2019-02-23T05:35:56.919Z,51.66
2019-02-23T05:38:25.203Z,51.34
2019-02-23T05:40:53.498Z,51.15
2019-02-23T05:43:21.783Z,51.06
2019-02-23T05:45:50.082Z,53.30
2019-02-23T05:48:19.607Z,52.30
2019-02-23T05:50:48.053Z,52.24
2019-02-23T05:53:16.357Z,52.29
2019-02-23T05:55:44.641Z,50.87
2019-02-23T05:58:12.919Z,50.63
2019-02-23T06:00:41.207Z,51.32
2019-02-23T06:03:09.494Z,50.49
2019-02-23T06:05:37.759Z,51.19
2019-02-23T06:08:06.036Z,51.13
2019-02-23T06:10:34.341Z,52.54
2019-02-23T06:13:02.601Z,51.73
2019-02-23T06:15:30.894Z,51.35
2019-02-23T06:17:59.201Z,51.69
2019-02-23T06:20:27.487Z,52.10
2019-02-23T06:22:55.762Z,52.82
2019-02-23T06:25:24.033Z,53.54
2019-02-23T06:27:52.418Z,52.24
2019-02-23T06:30:21.013Z,52.26
2019-02-23T06:32:49.291Z,51.47
2019-02-23T06:35:17.570Z,53.15
2019-02-23T06:37:45.869Z,53.43
2019-02-23T06:40:14.141Z,53.85
2019-02-23T06:42:42.426Z,52.71
2019-02-23T06:45:12.594Z,52.24
2019-02-23T06:47:40.955Z,52.09
2019-02-23T06:50:09.322Z,51.43
2019-02-23T06:52:37.653Z,50.86
2019-02-23T06:55:07.204Z,51.63
2019-02-23T06:57:35.464Z,50.99
2019-02-23T07:00:05.828Z,50.79
2019-02-23T07:02:34.142Z,51.13
2019-02-23T07:05:02.434Z,51.06
2019-02-23T07:07:30.720Z,51.40
2019-02-23T07:09:58.991Z,50.84
2019-02-23T07:12:27.257Z,50.91
2019-02-23T07:14:55.561Z,51.88
2019-02-23T07:17:26.775Z,51.72
2019-02-23T07:19:55.072Z,51.02
2019-02-23T07:22:23.383Z,51.34
2019-02-23T07:24:51.678Z,50.74
2019-02-23T07:27:19.965Z,50.21
2019-02-23T07:29:48.235Z,49.58
2019-02-23T07:32:16.522Z,50.96
2019-02-23T07:34:44.793Z,49.55
2019-02-23T07:37:13.079Z,50.02
2019-02-23T07:39:41.359Z,49.89
2019-02-23T07:42:09.639Z,50.56
2019-02-23T07:44:37.926Z,50.12
2019-02-23T07:47:06.203Z,48.24
2019-02-23T07:49:34.471Z,48.25
2019-02-23T07:52:02.825Z,48.87
2019-02-23T07:54:31.092Z,50.01
2019-02-23T07:56:59.374Z,49.76
2019-02-23T07:59:27.669Z,48.78
2019-02-23T08:01:55.966Z,49.24
2019-02-23T08:04:24.229Z,48.92
2019-02-23T08:06:52.504Z,48.02
2019-02-23T08:09:20.840Z,47.85
2019-02-23T08:11:49.110Z,48.12
2019-02-23T08:14:17.392Z,47.93
2019-02-23T08:16:45.679Z,47.93
2019-02-23T08:19:13.966Z,48.97
2019-02-23T08:21:42.269Z,47.77
2019-02-23T08:24:10.560Z,47.03
2019-02-23T08:26:38.837Z,46.06
2019-02-23T08:29:07.140Z,46.01
2019-02-23T08:31:35.501Z,46.89
2019-02-23T08:34:03.784Z,46.26
2019-02-23T08:36:32.042Z,45.74
2019-02-23T08:39:00.390Z,45.55
2019-02-23T08:41:28.857Z,45.92
2019-02-23T08:43:57.134Z,46.28
2019-02-23T08:46:25.410Z,47.02
2019-02-23T08:48:53.707Z,45.05
2019-02-23T08:51:21.971Z,44.98
2019-02-23T08:53:50.270Z,44.60
2019-02-23T08:56:18.553Z,44.15
2019-02-23T08:58:47.057Z,43.90
2019-02-23T09:01:15.505Z,44.35
2019-02-23T09:03:43.796Z,45.43
2019-02-23T09:06:12.078Z,46.36
2019-02-23T09:08:40.424Z,45.05
2019-02-23T09:11:08.715Z,44.86
2019-02-23T09:13:37.068Z,44.12
2019-02-23T09:16:05.376Z,43.56
2019-02-23T09:18:33.656Z,44.21
2019-02-23T09:21:07.134Z,43.39
2019-02-23T09:23:35.410Z,42.70
2019-02-23T09:26:03.722Z,44.75
2019-02-23T09:28:32.039Z,43.17
2019-02-23T09:31:00.327Z,44.98
2019-02-23T09:33:28.623Z,44.40
2019-02-23T09:35:56.972Z,42.42
2019-02-23T09:38:25.259Z,43.02
2019-02-23T09:40:53.528Z,42.30
2019-02-23T09:43:21.829Z,42.00
2019-02-23T09:45:50.139Z,41.23
2019-02-23T09:48:18.494Z,41.77
2019-02-23T09:50:46.815Z,41.60
2019-02-23T09:53:15.095Z,42.94
2019-02-23T09:55:43.410Z,42.47
2019-02-23T09:58:11.692Z,41.68
2019-02-23T10:00:39.998Z,41.48
2019-02-23T10:03:08.371Z,42.20
2019-02-23T10:05:38.184Z,41.22
2019-02-23T10:08:06.652Z,43.09
2019-02-23T10:10:34.956Z,41.92
2019-02-23T10:13:03.230Z,41.99
2019-02-23T10:15:31.534Z,41.17
2019-02-23T10:17:59.820Z,40.55
2019-02-23T10:20:28.131Z,40.64
2019-02-23T10:22:56.419Z,40.20
2019-02-23T10:25:24.691Z,39.79
2019-02-23T10:27:53.018Z,40.85
2019-02-23T10:30:21.302Z,40.23
2019-02-23T10:32:49.605Z,39.44
2019-02-23T10:35:17.871Z,38.34
2019-02-23T10:37:46.468Z,39.33
2019-02-23T10:40:14.945Z,39.27
2019-02-23T10:42:43.234Z,40.75
2019-02-23T10:45:13.343Z,40.62
2019-02-23T10:47:41.749Z,39.32
2019-02-23T10:50:14.622Z,40.25
2019-02-23T10:52:42.895Z,38.60
2019-02-23T10:55:13.784Z,38.40
2019-02-23T10:57:42.084Z,37.05
2019-02-23T11:00:17.384Z,38.13
2019-02-23T11:02:45.754Z,37.30
2019-02-23T11:05:14.097Z,37.12
2019-02-23T11:07:42.428Z,37.25
2019-02-23T11:10:11.171Z,36.76
2019-02-23T11:12:39.619Z,36.84
2019-02-23T11:15:11.213Z,37.79
2019-02-23T11:17:39.505Z,37.33
2019-02-23T11:20:09.916Z,37.23
2019-02-23T11:22:38.212Z,37.42
2019-02-23T11:25:09.254Z,37.78
2019-02-23T11:27:37.650Z,36.50
2019-02-23T11:30:09.259Z,36.05
2019-02-23T11:32:37.607Z,35.66
2019-02-23T11:35:07.943Z,35.00
2019-02-23T11:37:36.254Z,35.84
2019-02-23T11:40:06.884Z,35.43
2019-02-23T11:42:35.184Z,34.33
2019-02-23T11:45:03.564Z,34.35
2019-02-23T11:47:31.872Z,33.56
2019-02-23T11:50:00.406Z,33.59
2019-02-23T11:52:28.843Z,32.69
2019-02-23T11:54:57.113Z,32.72
2019-02-23T11:57:25.419Z,33.21
2019-02-23T11:59:53.700Z,32.13
2019-02-23T12:02:21.979Z,29.78
2019-02-23T12:04:50.258Z,32.32
2019-02-23T12:07:18.545Z,30.23
2019-02-23T12:09:46.848Z,29.21
2019-02-23T12:12:15.142Z,29.34
2019-02-23T12:14:43.441Z,28.46
2019-02-23T12:17:11.741Z,27.88
2019-02-23T12:19:40.034Z,26.86
2019-02-23T12:22:12.381Z,27.48
2019-02-23T12:24:38.345Z,27.24
2019-02-23T12:27:06.626Z,26.72
2019-02-23T12:29:34.934Z,26.17
2019-02-23T12:32:03.219Z,26.11
2019-02-23T12:34:31.475Z,25.49
2019-02-23T12:36:59.761Z,25.72
2019-02-23T12:39:28.037Z,25.13
2019-02-23T12:41:56.309Z,25.18
2019-02-23T12:44:24.593Z,24.33
2019-02-23T12:46:52.950Z,24.04
2019-02-23T12:49:21.241Z,25.25
2019-02-23T12:51:49.537Z,24.61
2019-02-23T12:54:17.822Z,24.77
2019-02-23T12:56:46.092Z,22.58
2019-02-23T12:59:14.380Z,23.68
2019-02-23T13:01:42.669Z,23.46
2019-02-23T13:04:10.931Z,23.89
2019-02-23T13:06:39.195Z,23.49
2019-02-23T13:09:22.453Z,23.84
2019-02-23T13:12:10.489Z,22.55
2019-02-23T13:14:44.392Z,23.76
2019-02-23T13:17:15.876Z,24.83
2019-02-23T13:20:12.975Z,21.98
2019-02-23T13:22:50.408Z,24.36
2019-02-23T13:25:36.856Z,22.89
2019-02-23T13:28:41.590Z,22.15
2019-02-23T13:31:24.805Z,22.77
2019-02-23T13:34:08.137Z,22.67
2019-02-23T13:36:51.722Z,22.53
2019-02-23T13:39:44.628Z,22.89
2019-02-23T13:42:31.264Z,22.83
2019-02-23T13:45:08.507Z,23.84
2019-02-23T13:47:58.212Z,23.20
2019-02-23T13:50:38.372Z,23.68
2019-02-23T13:53:15.887Z,24.02
2019-02-23T13:56:02.451Z,22.59
2019-02-23T13:58:36.489Z,22.89
2019-02-23T14:01:07.975Z,23.05
2019-02-23T14:04:00.188Z,22.67
2019-02-23T14:06:55.689Z,22.62
2019-02-23T14:09:52.729Z,22.99
2019-02-23T14:12:40.960Z,22.27
2019-02-23T14:15:29.166Z,22.44
2019-02-23T14:18:21.543Z,23.21
2019-02-23T14:21:11.041Z,23.83
2019-02-23T14:23:45.592Z,22.74
2019-02-23T14:26:42.704Z,22.99
2019-02-23T14:29:34.643Z,22.39
2019-02-23T14:32:08.967Z,23.29
2019-02-23T14:34:48.983Z,22.89
2019-02-23T14:37:44.869Z,22.88
2019-02-23T14:40:33.672Z,22.15
2019-02-23T14:43:12.055Z,23.03
2019-02-23T14:45:55.350Z,22.47
2019-02-23T14:48:46.170Z,22.80
2019-02-23T14:51:17.621Z,21.51
2019-02-23T14:54:00.555Z,22.01
2019-02-23T14:56:56.201Z,21.86
2019-02-23T14:59:42.830Z,21.86
2019-02-23T15:02:38.629Z,22.10
2019-02-23T15:05:24.842Z,21.96
2019-02-23T15:08:12.731Z,22.03
2019-02-23T15:10:59.220Z,21.64
2019-02-23T15:13:39.537Z,21.77
2019-02-23T15:16:20.125Z,22.23
2019-02-23T15:19:23.362Z,22.09
2019-02-23T15:21:54.791Z,22.80
2019-02-23T15:24:28.857Z,22.25
2019-02-23T15:27:06.148Z,22.96
2019-02-23T15:29:46.858Z,23.56
2019-02-23T15:32:30.457Z,24.04
2019-02-23T15:35:24.558Z,23.39
2019-02-23T15:38:12.789Z,23.96
2019-02-23T15:41:02.500Z,23.68
2019-02-23T15:44:07.388Z,23.54
2019-02-23T15:46:53.918Z,23.51
2019-02-23T15:49:34.394Z,22.85
2019-02-23T15:52:03.650Z,23.88
2019-02-23T15:54:38.726Z,24.39
2019-02-23T15:57:13.410Z,24.37
2019-02-23T15:59:44.497Z,23.50
2019-02-23T16:02:13.038Z,24.03
2019-02-23T16:04:41.310Z,24.77
2019-02-23T16:07:09.592Z,24.13
2019-02-23T16:09:37.865Z,24.33
2019-02-23T16:12:06.161Z,25.39
2019-02-23T16:14:34.484Z,24.80
2019-02-23T16:17:02.706Z,24.83
2019-02-23T16:19:30.991Z,25.17
2019-02-23T16:21:59.325Z,25.88
2019-02-23T16:24:27.613Z,25.97
2019-02-23T16:26:55.873Z,25.29
2019-02-23T16:29:24.158Z,25.47
2019-02-23T16:31:52.494Z,25.55
2019-02-23T16:34:21.914Z,25.09
2019-02-23T16:36:50.210Z,25.83
2019-02-23T16:39:18.472Z,25.66
2019-02-23T16:41:46.747Z,25.55
2019-02-23T16:44:15.099Z,25.12
2019-02-23T16:46:46.277Z,25.63
2019-02-23T16:49:15.946Z,25.83
2019-02-23T16:51:44.290Z,25.78
2019-02-23T16:54:13.277Z,25.89
2019-02-23T16:56:41.556Z,26.50
2019-02-23T16:59:09.977Z,26.61
2019-02-23T17:01:38.238Z,26.53
2019-02-23T17:04:06.728Z,26.20
2019-02-23T17:06:35.014Z,25.90
2019-02-23T17:09:03.864Z,26.29
2019-02-23T17:11:32.165Z,27.13
2019-02-23T17:14:00.624Z,27.12
2019-02-23T17:16:29.224Z,26.86
2019-02-23T17:18:57.518Z,27.75
2019-02-23T17:21:25.799Z,27.27
2019-02-23T17:23:54.073Z,27.45
2019-02-23T17:26:22.365Z,27.25
2019-02-23T17:28:50.652Z,27.37
2019-02-23T17:31:18.946Z,27.15
2019-02-23T17:33:48.122Z,27.33
2019-02-23T17:36:16.422Z,27.89
2019-02-23T17:38:44.962Z,27.48
2019-02-23T17:41:13.387Z,27.57
2019-02-23T17:43:41.891Z,27.41
2019-02-23T17:46:10.102Z,29.06
2019-02-23T17:48:38.409Z,28.14
2019-02-23T17:51:06.678Z,28.00
2019-02-23T17:53:34.968Z,28.22
2019-02-23T17:56:03.281Z,27.63
2019-02-23T17:58:31.566Z,28.12
2019-02-23T18:00:59.965Z,28.33
2019-02-23T18:03:28.399Z,28.38
2019-02-23T18:05:56.688Z,27.71
2019-02-23T18:08:24.998Z,27.79
2019-02-23T18:10:53.309Z,27.67
2019-02-23T18:13:21.619Z,28.05
2019-02-23T18:15:49.912Z,28.61
2019-02-23T18:18:18.186Z,28.83
2019-02-23T18:20:48.234Z,28.55
2019-02-23T18:23:16.808Z,28.71
2019-02-23T18:25:45.307Z,29.58
2019-02-23T18:28:13.608Z,28.63
2019-02-23T18:30:41.877Z,28.70
2019-02-23T18:33:10.206Z,28.84
2019-02-23T18:35:38.491Z,28.93
2019-02-23T18:38:06.774Z,29.62
2019-02-23T18:40:35.067Z,29.24
2019-02-23T18:43:03.354Z,29.01
2019-02-23T18:45:31.634Z,28.98
2019-02-23T18:47:59.918Z,28.52
2019-02-23T18:50:28.190Z,29.04
2019-02-23T18:52:56.482Z,29.28
2019-02-23T18:55:24.762Z,29.15
2019-02-23T18:57:53.044Z,29.57
2019-02-23T19:00:24.337Z,29.64
2019-02-23T19:02:51.375Z,28.97
2019-02-23T19:05:19.674Z,29.73
2019-02-23T19:07:47.936Z,29.41
2019-02-23T19:10:16.222Z,30.43
2019-02-23T19:12:44.578Z,29.23
2019-02-23T19:15:15.895Z,30.01
2019-02-23T19:17:44.175Z,29.48
2019-02-23T19:20:14.217Z,29.88
2019-02-23T19:22:42.519Z,29.22
2019-02-23T19:25:11.473Z,29.88
2019-02-23T19:27:39.906Z,29.97
2019-02-23T19:30:11.583Z,30.12
2019-02-23T19:32:39.893Z,29.61
2019-02-23T19:35:08.557Z,29.00
2019-02-23T19:37:36.829Z,29.03
2019-02-23T19:40:07.562Z,29.61
2019-02-23T19:42:35.824Z,29.23
2019-02-23T19:45:06.330Z,29.27
2019-02-23T19:47:34.632Z,29.23
2019-02-23T19:50:04.768Z,28.87
2019-02-23T19:52:33.054Z,29.90
2019-02-23T19:55:01.414Z,30.04
2019-02-23T19:57:29.778Z,29.66
2019-02-23T19:59:58.042Z,30.71
2019-02-23T20:02:26.345Z,30.50
2019-02-23T20:04:54.623Z,29.68
2019-02-23T20:07:22.914Z,29.81
2019-02-23T20:09:51.186Z,30.83
2019-02-23T20:12:19.479Z,31.40
2019-02-23T20:14:47.746Z,31.18
2019-02-23T20:17:16.017Z,31.56
2019-02-23T20:19:44.330Z,32.40
2019-02-23T20:22:12.621Z,31.06
2019-02-23T20:24:40.922Z,30.08
2019-02-23T20:27:09.204Z,30.34
2019-02-23T20:29:37.491Z,30.32
2019-02-23T20:32:05.766Z,29.96
2019-02-23T20:34:34.055Z,30.65
2019-02-23T20:37:02.342Z,30.51
2019-02-23T20:39:30.615Z,30.59
2019-02-23T20:41:58.922Z,30.01
2019-02-23T20:44:27.201Z,30.50
2019-02-23T20:46:55.633Z,30.21
2019-02-23T20:49:23.934Z,31.26
2019-02-23T20:51:52.224Z,30.96
2019-02-23T20:54:20.494Z,31.58
2019-02-23T20:56:48.761Z,31.88
2019-02-23T20:59:17.058Z,32.98
2019-02-23T21:01:45.334Z,32.89
2019-02-23T21:04:13.611Z,33.17
2019-02-23T21:06:41.936Z,33.89
2019-02-23T21:09:10.318Z,34.88
2019-02-23T21:11:38.607Z,34.83
2019-02-23T21:14:06.902Z,34.68
2019-02-23T21:16:35.179Z,34.61
2019-02-23T21:19:03.454Z,34.52
2019-02-23T21:21:31.737Z,34.64
2019-02-23T21:24:00.011Z,33.81
2019-02-23T21:26:28.302Z,34.34
2019-02-23T21:28:56.569Z,34.93
2019-02-23T21:31:24.851Z,34.67
2019-02-23T21:33:53.146Z,34.34
2019-02-23T21:36:21.432Z,34.76
2019-02-23T21:38:49.740Z,34.08
2019-02-23T21:41:18.194Z,33.80
2019-02-23T21:43:46.457Z,32.36
2019-02-23T21:46:14.894Z,31.81
2019-02-23T21:48:43.256Z,32.37
2019-02-23T21:51:11.501Z,31.74
2019-02-23T21:53:39.790Z,31.60
2019-02-23T21:56:08.517Z,32.14
2019-02-23T21:58:37.230Z,31.93
2019-02-23T22:01:07.155Z,32.21
2019-02-23T22:03:37.246Z,32.21
2019-02-23T22:06:05.581Z,32.15
2019-02-23T22:08:33.837Z,32.63
2019-02-23T22:11:02.217Z,32.82
2019-02-23T22:13:30.492Z,33.62
2019-02-23T22:15:58.801Z,33.35
2019-02-23T22:18:27.097Z,32.83
2019-02-23T22:20:55.387Z,32.03
2019-02-23T22:23:23.709Z,32.46
2019-02-23T22:25:52.078Z,32.14
2019-02-23T22:28:20.370Z,33.79
2019-02-23T22:30:48.727Z,33.05
2019-02-23T22:33:17.038Z,33.40
2019-02-23T22:35:45.348Z,33.20
2019-02-23T22:38:13.655Z,32.81
2019-02-23T22:40:41.909Z,32.92
2019-02-23T22:43:10.230Z,32.01
2019-02-23T22:45:38.508Z,32.62
2019-02-23T22:48:06.789Z,32.09
2019-02-23T22:50:35.844Z,32.94
2019-02-23T22:53:06.596Z,32.58
2019-02-23T22:55:34.863Z,32.88
2019-02-23T22:58:03.146Z,32.56
2019-02-23T23:00:49.627Z,32.31
2019-02-23T23:03:18.112Z,33.50
2019-02-23T23:05:46.377Z,32.60
2019-02-23T23:08:14.645Z,32.61
2019-02-23T23:10:42.961Z,32.51
2019-02-23T23:13:11.278Z,33.33
2019-02-23T23:15:39.639Z,32.06
2019-02-23T23:18:08.016Z,32.75
2019-02-23T23:20:36.311Z,32.45
2019-02-23T23:23:04.652Z,31.97
2019-02-23T23:25:32.921Z,32.48
2019-02-23T23:28:01.219Z,32.45
2019-02-23T23:30:29.511Z,32.20
2019-02-23T23:32:57.885Z,33.44
2019-02-23T23:35:26.153Z,33.26
2019-02-23T23:37:54.455Z,34.56
2019-02-23T23:40:22.847Z,35.79
2019-02-23T23:42:57.951Z,35.56
2019-02-23T23:45:21.115Z,35.63
2019-02-23T23:47:49.497Z,36.37
2019-02-23T23:50:17.840Z,36.07
2019-02-23T23:52:46.112Z,36.99
2019-02-23T23:55:14.388Z,36.72
2019-02-23T23:57:42.685Z,35.93
